sensor_id;sensor_type;location;lat;lon;timestamp;P1;durP1;ratioP1;P2;durP2;ratioP2
64950;SDS011;51482;47.014;7.652;2024-02-28T00:02:00;22.33;;;15.80;;
64950;SDS011;51482;47.014;7.652;2024-02-28T00:04:26;23.23;;;16.90;;
64950;SDS011;51482;47.014;7.652;2024-02-28T00:06:51;22.13;;;16.20;;
64950;SDS011;51482;47.014;7.652;2024-02-28T00:09:17;23.77;;;15.97;;
64950;SDS011;51482;47.014;7.652;2024-02-28T00:11:43;25.20;;;16.60;;
64950;SDS011;51482;47.014;7.652;2024-02-28T00:14:10;20.77;;;15.37;;
64950;SDS011;51482;47.014;7.652;2024-02-28T00:16:36;25.07;;;16.97;;
64950;SDS011;51482;47.014;7.652;2024-02-28T00:19:04;21.43;;;15.20;;
64950;SDS011;51482;47.014;7.652;2024-02-28T00:21:30;23.40;;;15.57;;
64950;SDS011;51482;47.014;7.652;2024-02-28T00:23:56;23.17;;;15.63;;
64950;SDS011;51482;47.014;7.652;2024-02-28T00:26:21;23.57;;;15.37;;
64950;SDS011;51482;47.014;7.652;2024-02-28T00:28:47;21.23;;;15.50;;
64950;SDS011;51482;47.014;7.652;2024-02-28T00:31:12;26.73;;;17.27;;
64950;SDS011;51482;47.014;7.652;2024-02-28T00:33:38;22.17;;;16.17;;
64950;SDS011;51482;47.014;7.652;2024-02-28T00:36:03;20.60;;;15.70;;
64950;SDS011;51482;47.014;7.652;2024-02-28T00:38:29;27.27;;;17.40;;
64950;SDS011;51482;47.014;7.652;2024-02-28T00:40:55;23.57;;;16.67;;
64950;SDS011;51482;47.014;7.652;2024-02-28T00:43:20;25.03;;;17.27;;
64950;SDS011;51482;47.014;7.652;2024-02-28T00:45:46;24.63;;;15.97;;
64950;SDS011;51482;47.014;7.652;2024-02-28T00:48:11;26.73;;;16.53;;
64950;SDS011;51482;47.014;7.652;2024-02-28T00:50:37;24.07;;;17.10;;
64950;SDS011;51482;47.014;7.652;2024-02-28T00:53:02;25.03;;;16.57;;
64950;SDS011;51482;47.014;7.652;2024-02-28T00:55:28;24.53;;;17.27;;
64950;SDS011;51482;47.014;7.652;2024-02-28T00:57:53;27.00;;;17.43;;
64950;SDS011;51482;47.014;7.652;2024-02-28T01:00:19;27.47;;;18.40;;
64950;SDS011;51482;47.014;7.652;2024-02-28T01:02:45;26.20;;;17.90;;
64950;SDS011;51482;47.014;7.652;2024-02-28T01:05:10;26.67;;;17.63;;
64950;SDS011;51482;47.014;7.652;2024-02-28T01:07:36;24.27;;;16.77;;
64950;SDS011;51482;47.014;7.652;2024-02-28T01:10:02;25.13;;;17.60;;
64950;SDS011;51482;47.014;7.652;2024-02-28T01:12:29;27.20;;;18.10;;
64950;SDS011;51482;47.014;7.652;2024-02-28T01:14:54;23.30;;;16.53;;
64950;SDS011;51482;47.014;7.652;2024-02-28T01:17:20;28.13;;;17.63;;
64950;SDS011;51482;47.014;7.652;2024-02-28T01:19:46;25.87;;;17.20;;
64950;SDS011;51482;47.014;7.652;2024-02-28T01:22:12;23.90;;;17.37;;
64950;SDS011;51482;47.014;7.652;2024-02-28T01:24:37;24.37;;;17.73;;
64950;SDS011;51482;47.014;7.652;2024-02-28T01:27:03;29.27;;;19.00;;
64950;SDS011;51482;47.014;7.652;2024-02-28T01:29:29;26.83;;;17.57;;
64950;SDS011;51482;47.014;7.652;2024-02-28T01:31:54;24.60;;;17.10;;
64950;SDS011;51482;47.014;7.652;2024-02-28T01:34:20;25.57;;;17.33;;
64950;SDS011;51482;47.014;7.652;2024-02-28T01:36:46;26.93;;;18.03;;
64950;SDS011;51482;47.014;7.652;2024-02-28T01:39:11;28.47;;;18.40;;
64950;SDS011;51482;47.014;7.652;2024-02-28T01:41:37;28.67;;;18.93;;
64950;SDS011;51482;47.014;7.652;2024-02-28T01:44:02;26.20;;;17.50;;
64950;SDS011;51482;47.014;7.652;2024-02-28T01:46:28;26.40;;;18.07;;
64950;SDS011;51482;47.014;7.652;2024-02-28T01:48:56;27.27;;;17.17;;
64950;SDS011;51482;47.014;7.652;2024-02-28T01:51:24;29.77;;;19.13;;
64950;SDS011;51482;47.014;7.652;2024-02-28T01:53:52;27.07;;;18.83;;
64950;SDS011;51482;47.014;7.652;2024-02-28T01:56:19;28.03;;;19.13;;
64950;SDS011;51482;47.014;7.652;2024-02-28T01:58:47;27.50;;;19.27;;
64950;SDS011;51482;47.014;7.652;2024-02-28T02:01:14;27.83;;;18.90;;
64950;SDS011;51482;47.014;7.652;2024-02-28T02:03:40;34.40;;;19.60;;
64950;SDS011;51482;47.014;7.652;2024-02-28T02:06:07;27.33;;;17.93;;
64950;SDS011;51482;47.014;7.652;2024-02-28T02:08:33;27.43;;;18.03;;
64950;SDS011;51482;47.014;7.652;2024-02-28T02:10:59;30.40;;;19.80;;
64950;SDS011;51482;47.014;7.652;2024-02-28T02:13:24;28.23;;;19.40;;
64950;SDS011;51482;47.014;7.652;2024-02-28T02:15:50;29.47;;;20.00;;
64950;SDS011;51482;47.014;7.652;2024-02-28T02:18:15;28.20;;;18.30;;
64950;SDS011;51482;47.014;7.652;2024-02-28T02:20:42;29.53;;;19.37;;
64950;SDS011;51482;47.014;7.652;2024-02-28T02:23:11;27.53;;;17.93;;
64950;SDS011;51482;47.014;7.652;2024-02-28T02:25:44;28.37;;;17.97;;
64950;SDS011;51482;47.014;7.652;2024-02-28T02:28:12;29.07;;;19.63;;
64950;SDS011;51482;47.014;7.652;2024-02-28T02:30:38;26.83;;;19.23;;
64950;SDS011;51482;47.014;7.652;2024-02-28T02:33:05;29.77;;;17.70;;
64950;SDS011;51482;47.014;7.652;2024-02-28T02:35:31;29.33;;;18.77;;
64950;SDS011;51482;47.014;7.652;2024-02-28T02:37:57;28.13;;;18.27;;
64950;SDS011;51482;47.014;7.652;2024-02-28T02:40:22;25.63;;;18.13;;
64950;SDS011;51482;47.014;7.652;2024-02-28T02:42:48;30.70;;;18.53;;
64950;SDS011;51482;47.014;7.652;2024-02-28T02:45:14;23.93;;;17.07;;
64950;SDS011;51482;47.014;7.652;2024-02-28T02:47:39;29.03;;;18.83;;
64950;SDS011;51482;47.014;7.652;2024-02-28T02:50:05;27.03;;;17.90;;
64950;SDS011;51482;47.014;7.652;2024-02-28T02:52:31;28.40;;;18.97;;
64950;SDS011;51482;47.014;7.652;2024-02-28T02:54:57;27.17;;;19.73;;
64950;SDS011;51482;47.014;7.652;2024-02-28T02:57:22;31.07;;;21.03;;
64950;SDS011;51482;47.014;7.652;2024-02-28T02:59:48;31.03;;;20.70;;
64950;SDS011;51482;47.014;7.652;2024-02-28T03:02:13;29.13;;;19.97;;
64950;SDS011;51482;47.014;7.652;2024-02-28T03:04:39;28.20;;;20.03;;
64950;SDS011;51482;47.014;7.652;2024-02-28T03:07:05;28.23;;;19.43;;
64950;SDS011;51482;47.014;7.652;2024-02-28T03:09:30;31.10;;;20.97;;
64950;SDS011;51482;47.014;7.652;2024-02-28T03:11:56;26.57;;;19.63;;
64950;SDS011;51482;47.014;7.652;2024-02-28T03:14:21;29.23;;;19.50;;
64950;SDS011;51482;47.014;7.652;2024-02-28T03:16:47;24.93;;;17.40;;
64950;SDS011;51482;47.014;7.652;2024-02-28T03:19:14;28.73;;;17.97;;
64950;SDS011;51482;47.014;7.652;2024-02-28T03:21:40;28.57;;;18.63;;
64950;SDS011;51482;47.014;7.652;2024-02-28T03:24:06;27.00;;;16.90;;
64950;SDS011;51482;47.014;7.652;2024-02-28T03:26:31;27.63;;;18.10;;
64950;SDS011;51482;47.014;7.652;2024-02-28T03:28:57;25.80;;;17.07;;
64950;SDS011;51482;47.014;7.652;2024-02-28T03:31:24;27.33;;;18.00;;
64950;SDS011;51482;47.014;7.652;2024-02-28T03:33:49;25.93;;;17.07;;
64950;SDS011;51482;47.014;7.652;2024-02-28T03:36:15;25.43;;;16.37;;
64950;SDS011;51482;47.014;7.652;2024-02-28T03:38:41;26.47;;;16.97;;
64950;SDS011;51482;47.014;7.652;2024-02-28T03:41:06;26.13;;;16.13;;
64950;SDS011;51482;47.014;7.652;2024-02-28T03:43:32;25.20;;;17.33;;
64950;SDS011;51482;47.014;7.652;2024-02-28T03:45:58;24.33;;;16.50;;
64950;SDS011;51482;47.014;7.652;2024-02-28T03:48:23;22.53;;;15.60;;
64950;SDS011;51482;47.014;7.652;2024-02-28T03:50:49;34.90;;;21.33;;
64950;SDS011;51482;47.014;7.652;2024-02-28T03:53:15;23.47;;;16.37;;
64950;SDS011;51482;47.014;7.652;2024-02-28T03:55:40;27.93;;;17.13;;
64950;SDS011;51482;47.014;7.652;2024-02-28T03:58:06;25.47;;;16.77;;
64950;SDS011;51482;47.014;7.652;2024-02-28T04:00:33;26.73;;;17.20;;
64950;SDS011;51482;47.014;7.652;2024-02-28T04:03:00;25.90;;;16.77;;
64950;SDS011;51482;47.014;7.652;2024-02-28T04:05:26;27.00;;;18.67;;
64950;SDS011;51482;47.014;7.652;2024-02-28T04:07:51;25.43;;;16.50;;
64950;SDS011;51482;47.014;7.652;2024-02-28T04:10:17;29.00;;;18.10;;
64950;SDS011;51482;47.014;7.652;2024-02-28T04:12:43;27.27;;;17.70;;
64950;SDS011;51482;47.014;7.652;2024-02-28T04:15:11;24.43;;;16.57;;
64950;SDS011;51482;47.014;7.652;2024-02-28T04:17:40;23.87;;;15.83;;
64950;SDS011;51482;47.014;7.652;2024-02-28T04:20:09;23.07;;;15.77;;
64950;SDS011;51482;47.014;7.652;2024-02-28T04:22:36;26.87;;;16.87;;
64950;SDS011;51482;47.014;7.652;2024-02-28T04:25:02;24.93;;;15.67;;
64950;SDS011;51482;47.014;7.652;2024-02-28T04:27:33;24.93;;;16.80;;
64950;SDS011;51482;47.014;7.652;2024-02-28T04:29:59;25.40;;;16.10;;
64950;SDS011;51482;47.014;7.652;2024-02-28T04:32:24;24.60;;;15.70;;
64950;SDS011;51482;47.014;7.652;2024-02-28T04:34:50;26.93;;;17.00;;
64950;SDS011;51482;47.014;7.652;2024-02-28T04:37:15;25.57;;;15.50;;
64950;SDS011;51482;47.014;7.652;2024-02-28T04:39:41;25.43;;;15.50;;
64950;SDS011;51482;47.014;7.652;2024-02-28T04:42:07;23.27;;;15.70;;
64950;SDS011;51482;47.014;7.652;2024-02-28T04:44:32;25.67;;;17.30;;
64950;SDS011;51482;47.014;7.652;2024-02-28T04:46:58;24.90;;;16.23;;
64950;SDS011;51482;47.014;7.652;2024-02-28T04:49:23;24.40;;;15.03;;
64950;SDS011;51482;47.014;7.652;2024-02-28T04:51:49;26.20;;;16.53;;
64950;SDS011;51482;47.014;7.652;2024-02-28T04:54:15;22.57;;;15.27;;
64950;SDS011;51482;47.014;7.652;2024-02-28T04:56:40;24.20;;;15.87;;
64950;SDS011;51482;47.014;7.652;2024-02-28T04:59:07;25.17;;;16.17;;
64950;SDS011;51482;47.014;7.652;2024-02-28T05:01:38;26.30;;;16.67;;
64950;SDS011;51482;47.014;7.652;2024-02-28T05:04:06;23.43;;;15.17;;
64950;SDS011;51482;47.014;7.652;2024-02-28T05:06:33;25.30;;;15.87;;
64950;SDS011;51482;47.014;7.652;2024-02-28T05:08:58;22.10;;;14.33;;
64950;SDS011;51482;47.014;7.652;2024-02-28T05:11:24;22.97;;;15.03;;
64950;SDS011;51482;47.014;7.652;2024-02-28T05:13:50;24.03;;;15.03;;
64950;SDS011;51482;47.014;7.652;2024-02-28T05:16:15;24.37;;;15.87;;
64950;SDS011;51482;47.014;7.652;2024-02-28T05:18:41;24.83;;;15.20;;
64950;SDS011;51482;47.014;7.652;2024-02-28T05:21:09;27.10;;;15.23;;
64950;SDS011;51482;47.014;7.652;2024-02-28T05:23:35;22.70;;;14.63;;
64950;SDS011;51482;47.014;7.652;2024-02-28T05:26:01;23.40;;;15.50;;
64950;SDS011;51482;47.014;7.652;2024-02-28T05:28:31;20.10;;;13.97;;
64950;SDS011;51482;47.014;7.652;2024-02-28T05:30:59;20.40;;;13.73;;
64950;SDS011;51482;47.014;7.652;2024-02-28T05:33:35;21.30;;;14.37;;
64950;SDS011;51482;47.014;7.652;2024-02-28T05:36:00;21.40;;;13.80;;
64950;SDS011;51482;47.014;7.652;2024-02-28T05:38:26;22.67;;;14.90;;
64950;SDS011;51482;47.014;7.652;2024-02-28T05:40:51;22.87;;;13.60;;
64950;SDS011;51482;47.014;7.652;2024-02-28T05:43:17;21.93;;;14.63;;
64950;SDS011;51482;47.014;7.652;2024-02-28T05:45:42;19.33;;;14.67;;
64950;SDS011;51482;47.014;7.652;2024-02-28T05:48:08;22.30;;;13.73;;
64950;SDS011;51482;47.014;7.652;2024-02-28T05:50:34;20.83;;;13.80;;
64950;SDS011;51482;47.014;7.652;2024-02-28T05:52:59;21.80;;;15.03;;
64950;SDS011;51482;47.014;7.652;2024-02-28T05:55:25;19.03;;;13.03;;
64950;SDS011;51482;47.014;7.652;2024-02-28T05:57:51;21.83;;;13.57;;
64950;SDS011;51482;47.014;7.652;2024-02-28T06:00:16;20.60;;;13.87;;
64950;SDS011;51482;47.014;7.652;2024-02-28T06:02:42;20.30;;;14.00;;
64950;SDS011;51482;47.014;7.652;2024-02-28T06:05:08;21.93;;;15.17;;
64950;SDS011;51482;47.014;7.652;2024-02-28T06:07:33;24.97;;;15.23;;
64950;SDS011;51482;47.014;7.652;2024-02-28T06:09:59;21.50;;;15.07;;
64950;SDS011;51482;47.014;7.652;2024-02-28T06:12:25;22.53;;;17.53;;
64950;SDS011;51482;47.014;7.652;2024-02-28T06:14:50;22.97;;;16.03;;
64950;SDS011;51482;47.014;7.652;2024-02-28T06:17:16;25.37;;;15.87;;
64950;SDS011;51482;47.014;7.652;2024-02-28T06:19:41;22.83;;;15.83;;
64950;SDS011;51482;47.014;7.652;2024-02-28T06:22:07;23.20;;;15.30;;
64950;SDS011;51482;47.014;7.652;2024-02-28T06:24:35;19.50;;;13.70;;
64950;SDS011;51482;47.014;7.652;2024-02-28T06:27:01;23.70;;;15.13;;
64950;SDS011;51482;47.014;7.652;2024-02-28T06:29:27;22.60;;;14.53;;
64950;SDS011;51482;47.014;7.652;2024-02-28T06:31:52;23.13;;;14.30;;
64950;SDS011;51482;47.014;7.652;2024-02-28T06:34:20;20.40;;;14.00;;
64950;SDS011;51482;47.014;7.652;2024-02-28T06:36:47;20.67;;;13.17;;
64950;SDS011;51482;47.014;7.652;2024-02-28T06:39:13;22.57;;;14.67;;
64950;SDS011;51482;47.014;7.652;2024-02-28T06:41:38;21.90;;;13.97;;
64950;SDS011;51482;47.014;7.652;2024-02-28T06:44:04;21.67;;;14.53;;
64950;SDS011;51482;47.014;7.652;2024-02-28T06:46:30;20.57;;;13.63;;
64950;SDS011;51482;47.014;7.652;2024-02-28T06:48:55;22.73;;;14.43;;
64950;SDS011;51482;47.014;7.652;2024-02-28T06:51:21;20.53;;;13.00;;
64950;SDS011;51482;47.014;7.652;2024-02-28T06:53:46;19.20;;;13.80;;
64950;SDS011;51482;47.014;7.652;2024-02-28T06:56:12;19.30;;;13.77;;
64950;SDS011;51482;47.014;7.652;2024-02-28T06:58:37;20.30;;;14.23;;
64950;SDS011;51482;47.014;7.652;2024-02-28T07:01:03;19.93;;;13.73;;
64950;SDS011;51482;47.014;7.652;2024-02-28T07:03:28;21.33;;;13.63;;
64950;SDS011;51482;47.014;7.652;2024-02-28T07:05:54;21.93;;;13.67;;
64950;SDS011;51482;47.014;7.652;2024-02-28T07:08:20;20.60;;;13.77;;
64950;SDS011;51482;47.014;7.652;2024-02-28T07:10:46;16.03;;;11.60;;
64950;SDS011;51482;47.014;7.652;2024-02-28T07:13:14;17.97;;;12.87;;
64950;SDS011;51482;47.014;7.652;2024-02-28T07:15:40;19.20;;;13.50;;
64950;SDS011;51482;47.014;7.652;2024-02-28T07:18:06;16.83;;;12.03;;
64950;SDS011;51482;47.014;7.652;2024-02-28T07:20:32;21.30;;;14.00;;
64950;SDS011;51482;47.014;7.652;2024-02-28T07:22:58;19.97;;;12.77;;
64950;SDS011;51482;47.014;7.652;2024-02-28T07:25:24;20.10;;;13.23;;
64950;SDS011;51482;47.014;7.652;2024-02-28T07:27:49;20.07;;;13.30;;
64950;SDS011;51482;47.014;7.652;2024-02-28T07:30:15;19.73;;;12.63;;
64950;SDS011;51482;47.014;7.652;2024-02-28T07:32:40;16.97;;;12.37;;
64950;SDS011;51482;47.014;7.652;2024-02-28T07:35:06;19.10;;;12.70;;
64950;SDS011;51482;47.014;7.652;2024-02-28T07:37:32;18.57;;;11.90;;
64950;SDS011;51482;47.014;7.652;2024-02-28T07:39:58;17.77;;;11.60;;
64950;SDS011;51482;47.014;7.652;2024-02-28T07:42:23;18.40;;;12.00;;
64950;SDS011;51482;47.014;7.652;2024-02-28T07:44:49;16.73;;;11.60;;
64950;SDS011;51482;47.014;7.652;2024-02-28T07:47:18;19.63;;;12.33;;
64950;SDS011;51482;47.014;7.652;2024-02-28T07:49:44;18.00;;;11.57;;
64950;SDS011;51482;47.014;7.652;2024-02-28T07:52:10;18.83;;;12.70;;
64950;SDS011;51482;47.014;7.652;2024-02-28T07:54:35;16.47;;;11.40;;
64950;SDS011;51482;47.014;7.652;2024-02-28T07:57:01;15.67;;;11.23;;
64950;SDS011;51482;47.014;7.652;2024-02-28T07:59:29;16.63;;;11.40;;
64950;SDS011;51482;47.014;7.652;2024-02-28T08:01:55;15.60;;;11.30;;
64950;SDS011;51482;47.014;7.652;2024-02-28T08:04:20;14.57;;;11.23;;
64950;SDS011;51482;47.014;7.652;2024-02-28T08:06:46;16.33;;;11.43;;
64950;SDS011;51482;47.014;7.652;2024-02-28T08:09:11;15.90;;;11.00;;
64950;SDS011;51482;47.014;7.652;2024-02-28T08:11:37;16.87;;;11.90;;
64950;SDS011;51482;47.014;7.652;2024-02-28T08:14:02;16.23;;;10.50;;
64950;SDS011;51482;47.014;7.652;2024-02-28T08:16:28;16.27;;;11.23;;
64950;SDS011;51482;47.014;7.652;2024-02-28T08:18:54;16.73;;;11.17;;
64950;SDS011;51482;47.014;7.652;2024-02-28T08:21:19;15.47;;;11.13;;
64950;SDS011;51482;47.014;7.652;2024-02-28T08:23:45;17.07;;;11.17;;
64950;SDS011;51482;47.014;7.652;2024-02-28T08:26:10;17.13;;;11.10;;
64950;SDS011;51482;47.014;7.652;2024-02-28T08:28:36;16.77;;;11.67;;
64950;SDS011;51482;47.014;7.652;2024-02-28T08:31:01;16.13;;;11.53;;
64950;SDS011;51482;47.014;7.652;2024-02-28T08:33:27;17.17;;;12.10;;
64950;SDS011;51482;47.014;7.652;2024-02-28T08:35:53;15.73;;;10.70;;
64950;SDS011;51482;47.014;7.652;2024-02-28T08:38:18;15.23;;;11.27;;
64950;SDS011;51482;47.014;7.652;2024-02-28T08:40:44;16.00;;;11.90;;
64950;SDS011;51482;47.014;7.652;2024-02-28T08:43:10;15.77;;;10.80;;
64950;SDS011;51482;47.014;7.652;2024-02-28T08:45:36;16.87;;;11.33;;
64950;SDS011;51482;47.014;7.652;2024-02-28T08:48:01;18.10;;;11.60;;
64950;SDS011;51482;47.014;7.652;2024-02-28T08:50:27;15.07;;;10.57;;
64950;SDS011;51482;47.014;7.652;2024-02-28T08:52:53;20.27;;;11.60;;
64950;SDS011;51482;47.014;7.652;2024-02-28T08:55:19;17.10;;;10.57;;
64950;SDS011;51482;47.014;7.652;2024-02-28T08:57:46;16.60;;;10.83;;
64950;SDS011;51482;47.014;7.652;2024-02-28T09:00:12;16.00;;;11.03;;
64950;SDS011;51482;47.014;7.652;2024-02-28T09:02:40;16.67;;;11.27;;
64950;SDS011;51482;47.014;7.652;2024-02-28T09:05:06;17.30;;;11.53;;
64950;SDS011;51482;47.014;7.652;2024-02-28T09:07:32;15.90;;;11.20;;
64950;SDS011;51482;47.014;7.652;2024-02-28T09:09:57;14.90;;;11.30;;
64950;SDS011;51482;47.014;7.652;2024-02-28T09:12:23;16.17;;;10.60;;
64950;SDS011;51482;47.014;7.652;2024-02-28T09:14:49;19.23;;;12.80;;
64950;SDS011;51482;47.014;7.652;2024-02-28T09:17:19;17.87;;;10.90;;
64950;SDS011;51482;47.014;7.652;2024-02-28T09:19:45;16.40;;;11.83;;
64950;SDS011;51482;47.014;7.652;2024-02-28T09:22:10;17.20;;;11.30;;
64950;SDS011;51482;47.014;7.652;2024-02-28T09:24:37;20.47;;;12.60;;
64950;SDS011;51482;47.014;7.652;2024-02-28T09:27:02;18.03;;;11.30;;
64950;SDS011;51482;47.014;7.652;2024-02-28T09:29:28;17.83;;;11.07;;
64950;SDS011;51482;47.014;7.652;2024-02-28T09:31:54;16.30;;;11.70;;
64950;SDS011;51482;47.014;7.652;2024-02-28T09:34:19;16.57;;;11.13;;
64950;SDS011;51482;47.014;7.652;2024-02-28T09:36:45;18.70;;;11.50;;
64950;SDS011;51482;47.014;7.652;2024-02-28T09:39:14;17.07;;;12.10;;
64950;SDS011;51482;47.014;7.652;2024-02-28T09:41:42;15.93;;;11.03;;
64950;SDS011;51482;47.014;7.652;2024-02-28T09:44:08;18.33;;;11.90;;
64950;SDS011;51482;47.014;7.652;2024-02-28T09:46:34;19.10;;;12.13;;
64950;SDS011;51482;47.014;7.652;2024-02-28T09:49:01;17.57;;;12.13;;
64950;SDS011;51482;47.014;7.652;2024-02-28T09:51:33;19.53;;;11.67;;
64950;SDS011;51482;47.014;7.652;2024-02-28T09:54:05;19.03;;;11.90;;
64950;SDS011;51482;47.014;7.652;2024-02-28T09:56:31;16.40;;;12.00;;
64950;SDS011;51482;47.014;7.652;2024-02-28T09:58:57;17.47;;;11.87;;
64950;SDS011;51482;47.014;7.652;2024-02-28T10:01:23;17.97;;;12.13;;
64950;SDS011;51482;47.014;7.652;2024-02-28T10:03:51;18.20;;;12.20;;
64950;SDS011;51482;47.014;7.652;2024-02-28T10:06:21;17.87;;;11.77;;
64950;SDS011;51482;47.014;7.652;2024-02-28T10:08:47;15.33;;;10.87;;
64950;SDS011;51482;47.014;7.652;2024-02-28T10:13:48;16.00;;;11.43;;
64950;SDS011;51482;47.014;7.652;2024-02-28T10:16:14;18.47;;;12.33;;
64950;SDS011;51482;47.014;7.652;2024-02-28T10:18:43;20.47;;;11.90;;
64950;SDS011;51482;47.014;7.652;2024-02-28T10:21:09;22.37;;;13.93;;
64950;SDS011;51482;47.014;7.652;2024-02-28T10:23:41;23.40;;;14.00;;
64950;SDS011;51482;47.014;7.652;2024-02-28T10:26:10;21.50;;;12.57;;
64950;SDS011;51482;47.014;7.652;2024-02-28T10:28:39;21.23;;;12.40;;
64950;SDS011;51482;47.014;7.652;2024-02-28T10:31:06;20.43;;;12.10;;
64950;SDS011;51482;47.014;7.652;2024-02-28T10:33:32;17.40;;;11.70;;
64950;SDS011;51482;47.014;7.652;2024-02-28T10:35:59;20.50;;;13.37;;
64950;SDS011;51482;47.014;7.652;2024-02-28T10:38:26;20.03;;;12.90;;
64950;SDS011;51482;47.014;7.652;2024-02-28T10:40:52;17.77;;;12.20;;
64950;SDS011;51482;47.014;7.652;2024-02-28T10:43:18;18.60;;;12.20;;
64950;SDS011;51482;47.014;7.652;2024-02-28T10:45:45;21.20;;;13.10;;
64950;SDS011;51482;47.014;7.652;2024-02-28T10:48:11;19.73;;;12.37;;
64950;SDS011;51482;47.014;7.652;2024-02-28T10:50:40;20.47;;;13.33;;
64950;SDS011;51482;47.014;7.652;2024-02-28T10:53:08;19.87;;;12.90;;
64950;SDS011;51482;47.014;7.652;2024-02-28T10:55:40;16.57;;;12.47;;
64950;SDS011;51482;47.014;7.652;2024-02-28T10:58:06;20.00;;;12.97;;
64950;SDS011;51482;47.014;7.652;2024-02-28T11:00:34;20.57;;;12.70;;
64950;SDS011;51482;47.014;7.652;2024-02-28T11:03:03;16.20;;;11.73;;
64950;SDS011;51482;47.014;7.652;2024-02-28T11:05:36;19.37;;;12.67;;
64950;SDS011;51482;47.014;7.652;2024-02-28T11:08:08;19.53;;;12.37;;
64950;SDS011;51482;47.014;7.652;2024-02-28T11:10:34;20.77;;;12.07;;
64950;SDS011;51482;47.014;7.652;2024-02-28T11:13:00;18.03;;;11.80;;
64950;SDS011;51482;47.014;7.652;2024-02-28T11:15:25;17.77;;;11.70;;
64950;SDS011;51482;47.014;7.652;2024-02-28T11:17:54;21.27;;;12.53;;
64950;SDS011;51482;47.014;7.652;2024-02-28T11:20:31;17.57;;;12.23;;
64950;SDS011;51482;47.014;7.652;2024-02-28T11:22:57;18.60;;;12.70;;
64950;SDS011;51482;47.014;7.652;2024-02-28T11:25:24;18.70;;;12.90;;
64950;SDS011;51482;47.014;7.652;2024-02-28T11:27:50;12.33;;;8.97;;
64950;SDS011;51482;47.014;7.652;2024-02-28T11:30:15;19.50;;;12.70;;
64950;SDS011;51482;47.014;7.652;2024-02-28T11:32:41;21.07;;;13.43;;
64950;SDS011;51482;47.014;7.652;2024-02-28T11:35:07;18.43;;;12.73;;
64950;SDS011;51482;47.014;7.652;2024-02-28T11:37:33;18.13;;;13.00;;
64950;SDS011;51482;47.014;7.652;2024-02-28T11:39:59;16.63;;;11.63;;
64950;SDS011;51482;47.014;7.652;2024-02-28T11:42:24;17.97;;;11.97;;
64950;SDS011;51482;47.014;7.652;2024-02-28T11:44:53;19.30;;;12.60;;
64950;SDS011;51482;47.014;7.652;2024-02-28T11:47:20;17.47;;;13.13;;
64950;SDS011;51482;47.014;7.652;2024-02-28T11:49:47;17.43;;;12.07;;
64950;SDS011;51482;47.014;7.652;2024-02-28T11:52:14;18.80;;;12.50;;
64950;SDS011;51482;47.014;7.652;2024-02-28T11:54:39;18.03;;;12.70;;
64950;SDS011;51482;47.014;7.652;2024-02-28T11:57:05;18.33;;;12.20;;
64950;SDS011;51482;47.014;7.652;2024-02-28T11:59:33;18.70;;;12.00;;
64950;SDS011;51482;47.014;7.652;2024-02-28T12:01:58;18.97;;;12.67;;
64950;SDS011;51482;47.014;7.652;2024-02-28T12:04:24;17.63;;;12.87;;
64950;SDS011;51482;47.014;7.652;2024-02-28T12:06:50;19.77;;;13.33;;
64950;SDS011;51482;47.014;7.652;2024-02-28T12:09:16;19.53;;;13.23;;
64950;SDS011;51482;47.014;7.652;2024-02-28T12:11:43;18.87;;;12.90;;
64950;SDS011;51482;47.014;7.652;2024-02-28T12:14:09;22.43;;;12.90;;
64950;SDS011;51482;47.014;7.652;2024-02-28T12:16:37;23.30;;;13.33;;
64950;SDS011;51482;47.014;7.652;2024-02-28T12:19:10;22.93;;;13.00;;
64950;SDS011;51482;47.014;7.652;2024-02-28T12:21:39;22.83;;;14.07;;
64950;SDS011;51482;47.014;7.652;2024-02-28T12:24:07;25.27;;;13.60;;
64950;SDS011;51482;47.014;7.652;2024-02-28T12:26:36;18.70;;;13.03;;
64950;SDS011;51482;47.014;7.652;2024-02-28T12:29:03;18.30;;;12.43;;
64950;SDS011;51482;47.014;7.652;2024-02-28T12:31:29;22.07;;;12.40;;
64950;SDS011;51482;47.014;7.652;2024-02-28T12:33:54;18.87;;;13.37;;
64950;SDS011;51482;47.014;7.652;2024-02-28T12:36:20;18.40;;;12.83;;
64950;SDS011;51482;47.014;7.652;2024-02-28T12:38:46;19.73;;;12.63;;
64950;SDS011;51482;47.014;7.652;2024-02-28T12:41:12;18.80;;;13.10;;
64950;SDS011;51482;47.014;7.652;2024-02-28T12:43:38;18.43;;;12.53;;
64950;SDS011;51482;47.014;7.652;2024-02-28T12:46:04;19.27;;;13.77;;
64950;SDS011;51482;47.014;7.652;2024-02-28T12:48:30;19.40;;;12.23;;
64950;SDS011;51482;47.014;7.652;2024-02-28T12:50:56;20.37;;;13.43;;
64950;SDS011;51482;47.014;7.652;2024-02-28T12:53:22;20.20;;;12.70;;
64950;SDS011;51482;47.014;7.652;2024-02-28T12:55:48;18.87;;;13.23;;
64950;SDS011;51482;47.014;7.652;2024-02-28T12:58:13;19.53;;;13.13;;
64950;SDS011;51482;47.014;7.652;2024-02-28T13:00:39;20.47;;;12.67;;
64950;SDS011;51482;47.014;7.652;2024-02-28T13:03:04;21.23;;;13.27;;
64950;SDS011;51482;47.014;7.652;2024-02-28T13:05:32;20.60;;;13.47;;
64950;SDS011;51482;47.014;7.652;2024-02-28T13:07:57;96.13;;;43.70;;
64950;SDS011;51482;47.014;7.652;2024-02-28T13:10:23;68.93;;;33.17;;
64950;SDS011;51482;47.014;7.652;2024-02-28T13:12:48;44.50;;;22.20;;
64950;SDS011;51482;47.014;7.652;2024-02-28T13:15:14;24.07;;;15.47;;
64950;SDS011;51482;47.014;7.652;2024-02-28T13:17:40;23.07;;;14.83;;
64950;SDS011;51482;47.014;7.652;2024-02-28T13:20:08;21.50;;;14.13;;
64950;SDS011;51482;47.014;7.652;2024-02-28T13:22:34;21.20;;;14.37;;
64950;SDS011;51482;47.014;7.652;2024-02-28T13:25:00;24.13;;;14.47;;
64950;SDS011;51482;47.014;7.652;2024-02-28T13:27:25;23.07;;;14.37;;
64950;SDS011;51482;47.014;7.652;2024-02-28T13:29:51;24.47;;;14.70;;
64950;SDS011;51482;47.014;7.652;2024-02-28T13:32:17;23.13;;;15.17;;
64950;SDS011;51482;47.014;7.652;2024-02-28T13:34:42;35.53;;;23.70;;
64950;SDS011;51482;47.014;7.652;2024-02-28T13:37:08;48.13;;;32.13;;
64950;SDS011;51482;47.014;7.652;2024-02-28T13:39:33;31.40;;;22.83;;
64950;SDS011;51482;47.014;7.652;2024-02-28T13:42:00;22.83;;;15.20;;
64950;SDS011;51482;47.014;7.652;2024-02-28T13:44:25;21.63;;;14.03;;
64950;SDS011;51482;47.014;7.652;2024-02-28T13:46:52;23.97;;;14.03;;
64950;SDS011;51482;47.014;7.652;2024-02-28T13:49:18;21.43;;;14.03;;
64950;SDS011;51482;47.014;7.652;2024-02-28T13:51:45;26.53;;;14.97;;
64950;SDS011;51482;47.014;7.652;2024-02-28T13:54:10;22.33;;;14.33;;
64950;SDS011;51482;47.014;7.652;2024-02-28T13:56:36;24.03;;;14.40;;
64950;SDS011;51482;47.014;7.652;2024-02-28T13:59:02;19.97;;;13.73;;
64950;SDS011;51482;47.014;7.652;2024-02-28T14:01:28;22.57;;;14.73;;
64950;SDS011;51482;47.014;7.652;2024-02-28T14:03:53;21.53;;;13.77;;
64950;SDS011;51482;47.014;7.652;2024-02-28T14:06:19;23.10;;;14.47;;
64950;SDS011;51482;47.014;7.652;2024-02-28T14:08:45;20.97;;;14.90;;
64950;SDS011;51482;47.014;7.652;2024-02-28T14:11:10;24.07;;;14.67;;
64950;SDS011;51482;47.014;7.652;2024-02-28T14:13:36;21.97;;;14.23;;
64950;SDS011;51482;47.014;7.652;2024-02-28T14:16:04;23.13;;;13.77;;
64950;SDS011;51482;47.014;7.652;2024-02-28T14:18:30;21.87;;;14.53;;